Time;durP1;ratioP1;P1;durP2;ratioP2;P2;SDS_P1;SDS_P2;PMS_P1;PMS_P2;Temp;Humidity;BMP_temperature;BMP_pressure;BME280_temperature;BME280_humidity;BME280_pressure;Samples;Min_cycle;Max_cycle;Signal;HPM_P1;HPM_P2
2021/03/23 00:02:10;;;;;;;12.17;5.07;;;-1.60;99.90;;;-1.00;56.34;94800.88;4992463;28;20177;-82
2021/03/23 00:04:45;;;;;;;9.30;4.23;;;-1.60;99.90;;;-1.14;56.19;94799.81;5020227;28;20653;-82
2021/03/23 00:07:48;;;;;;;11.17;4.93;;;-1.70;99.90;;;-1.23;56.62;94808.66;5019391;28;20187;-82
2021/03/23 00:10:27;;;;;;;7.63;4.63;;;-1.90;99.90;;;-1.14;56.27;94799.81;4997794;28;20199;-83
2021/03/23 00:13:10;;;;;;;10.47;4.07;;;-1.70;99.90;;;-1.25;56.20;94800.22;4977764;28;20242;-83
2021/03/23 00:16:06;;;;;;;9.17;4.33;;;-1.80;99.90;;;-1.33;56.39;94808.06;4980695;28;20196;-83
2021/03/23 00:18:35;;;;;;;9.43;4.37;;;-1.90;99.90;;;-1.26;56.62;94798.59;4922840;29;20204;-83
2021/03/23 00:21:04;;;;;;;11.80;4.37;;;-1.90;99.90;;;-1.36;56.47;94795.41;4923448;29;20935;-83
2021/03/23 00:23:32;;;;;;;9.87;4.80;;;-1.90;99.90;;;-1.37;56.07;94798.97;4892040;29;20248;-82
2021/03/23 00:25:59;;;;;;;13.07;4.70;;;-2.00;99.90;;;-1.32;56.31;94796.69;4891687;29;20200;-83
2021/03/23 00:28:26;;;;;;;11.50;4.33;;;-2.00;99.90;;;-1.30;56.62;94809.50;4922842;29;20650;-83
2021/03/23 00:31:05;;;;;;;13.57;5.03;;;-1.90;99.90;;;-1.29;56.48;94803.34;4916758;29;20193;-83
2021/03/23 00:33:31;;;;;;;10.33;4.70;;;-1.80;99.90;;;-1.34;56.90;94797.84;4893637;29;20220;-83
2021/03/23 00:36:01;;;;;;;9.30;4.60;;;-1.90;99.90;;;-1.42;56.84;94798.69;4920457;29;20286;-83
2021/03/23 00:38:48;;;;;;;9.90;4.57;;;-1.80;99.90;;;-1.33;56.81;94804.66;4920572;29;20228;-83
2021/03/23 00:41:27;;;;;;;9.13;4.30;;;-1.90;99.90;;;-1.27;56.45;94809.16;4919498;29;20683;-83
2021/03/23 00:43:53;;;;;;;10.87;4.80;;;-1.90;99.90;;;-1.43;56.64;94794.47;4935257;29;20721;-83
2021/03/23 00:46:20;;;;;;;11.07;4.33;;;-2.00;99.90;;;-1.56;56.64;94789.81;4935628;29;20236;-83
2021/03/23 00:48:55;;;;;;;13.33;4.53;;;-2.10;99.90;;;-1.54;56.97;94804.44;4920124;29;20248;-83
2021/03/23 00:51:22;;;;;;;9.70;4.03;;;-2.10;99.90;;;-1.63;56.98;94793.25;4919959;29;20202;-83
2021/03/23 00:53:57;;;;;;;9.07;4.60;;;-2.20;99.90;;;-1.54;56.77;94802.63;4923115;28;20214;-83
2021/03/23 00:56:32;;;;;;;10.30;4.33;;;-2.10;99.90;;;-1.56;57.03;94795.00;4983204;28;20189;-83
2021/03/23 00:58:59;;;;;;;9.97;4.53;;;-2.20;99.90;;;-1.57;57.16;94795.97;4980539;28;20166;-83
2021/03/23 01:01:58;;;;;;;11.00;4.33;;;-2.20;99.90;;;-1.51;56.98;94798.91;5013843;28;20192;-82
2021/03/23 01:04:25;;;;;;;11.10;4.47;;;-2.10;99.90;;;-1.38;56.98;94791.38;4977987;28;20222;-83
2021/03/23 01:06:55;;;;;;;9.90;4.77;;;-1.90;99.90;;;-1.32;57.08;94790.69;4993050;28;20186;-83
2021/03/23 01:09:21;;;;;;;12.97;4.83;;;-2.00;99.90;;;-1.26;57.09;94792.59;4999488;28;20218;-82
2021/03/23 01:11:58;;;;;;;9.03;4.13;;;-2.00;99.90;;;-1.22;57.38;94786.88;4982328;28;20190;-83
2021/03/23 01:14:27;;;;;;;12.67;4.47;;;-1.90;99.90;;;-1.27;57.24;94781.38;4983096;28;20224;-83
2021/03/23 01:17:14;;;;;;;9.67;4.57;;;-1.80;99.90;;;-1.29;57.52;94783.34;4993581;28;20640;-83
2021/03/23 01:19:42;;;;;;;7.77;3.73;;;-1.90;99.90;;;-1.22;57.64;94786.88;4978917;28;20620;-82
2021/03/23 01:22:08;;;;;;;10.00;4.47;;;-1.90;99.90;;;-1.21;57.48;94778.09;4986714;28;20196;-83
2021/03/23 01:24:37;;;;;;;14.00;3.97;;;-1.80;99.90;;;-1.23;57.36;94782.66;4986500;28;20186;-82
2021/03/23 01:27:04;;;;;;;11.40;4.67;;;-1.80;99.90;;;-1.23;57.63;94785.25;5004248;28;20190;-82
2021/03/23 01:29:52;;;;;;;10.03;4.63;;;-1.90;99.90;;;-1.17;57.89;94781.97;4999604;28;20185;-78
2021/03/23 01:32:18;;;;;;;11.40;4.50;;;-1.80;99.90;;;-1.25;57.85;94782.03;4995456;28;20249;-81
2021/03/23 01:34:57;;;;;;;9.17;4.73;;;-1.90;99.90;;;-1.25;57.64;94782.03;4984630;28;20179;-79
2021/03/23 01:37:54;;;;;;;11.60;4.50;;;-1.90;99.90;;;-1.38;57.39;94778.38;4980325;28;20174;-80
2021/03/23 01:40:28;;;;;;;7.63;4.13;;;-1.90;99.90;;;-1.34;57.60;94780.44;4984223;28;20186;-81
2021/03/23 01:43:01;;;;;;;10.57;4.70;;;-2.00;99.90;;;-1.33;57.65;94769.06;5023641;28;20577;-81
2021/03/23 01:45:36;;;;;;;11.40;4.90;;;-1.90;99.90;;;-1.24;58.27;94781.03;5023410;28;20221;-80
2021/03/23 01:48:52;;;;;;;9.17;4.77;;;-1.90;99.90;;;-1.22;57.60;94773.91;5023451;28;20195;-81
2021/03/23 01:51:32;;;;;;;8.53;4.53;;;-1.90;99.90;;;-1.24;58.02;94773.22;4980842;28;20274;-81
2021/03/23 01:54:05;;;;;;;13.47;4.43;;;-1.90;99.90;;;-1.17;57.87;94778.56;4961744;28;20191;-80
2021/03/23 01:56:35;;;;;;;10.57;4.30;;;-1.80;99.90;;;-1.16;57.71;94775.81;4954337;28;20194;-83
2021/03/23 01:59:08;;;;;;;9.23;3.70;;;-1.80;99.90;;;-1.11;58.07;94775.28;4965094;28;20171;-81
2021/03/23 02:01:38;;;;;;;7.67;4.10;;;-1.80;99.90;;;-1.11;58.26;94773.47;4965391;28;20222;-81
2021/03/23 02:04:05;;;;;;;11.80;4.63;;;-1.80;99.90;;;-1.15;58.32;94764.44;4981363;28;20198;-81
2021/03/23 02:06:39;;;;;;;11.17;4.37;;;-1.80;99.90;;;-1.14;58.47;94767.81;4981538;28;20195;-83
2021/03/23 02:09:28;;;;;;;10.17;4.50;;;-1.80;99.90;;;-1.20;57.99;94769.31;4981067;28;20671;-84
2021/03/23 02:12:02;;;;;;;7.33;4.33;;;-1.80;99.90;;;-1.19;58.19;94770.13;4965790;28;20189;-83
2021/03/23 02:14:47;;;;;;;7.03;4.23;;;-1.80;99.90;;;-1.29;58.22;94762.56;4981239;28;20228;-84
2021/03/23 02:17:24;;;;;;;11.47;4.53;;;-1.80;99.90;;;-1.21;57.95;94767.69;4981134;28;20197;-83
2021/03/23 02:19:55;;;;;;;13.43;4.40;;;-1.80;99.90;;;-1.14;58.30;94765.22;4976983;28;20190;-83
2021/03/23 02:22:29;;;;;;;11.17;4.60;;;-1.80;99.90;;;-1.10;58.02;94777.72;4953357;28;20190;-81
2021/03/23 02:24:57;;;;;;;9.50;4.37;;;-1.80;99.90;;;-1.14;58.37;94763.44;4960900;28;20195;-81
2021/03/23 02:27:26;;;;;;;12.93;4.40;;;-1.80;99.90;;;-1.28;58.34;94763.38;4956190;28;20198;-81
2021/03/23 02:29:57;;;;;;;11.80;4.63;;;-2.00;99.90;;;-1.29;58.42;94767.75;4964546;28;20225;-83
2021/03/23 02:32:23;;;;;;;11.37;4.60;;;-1.90;99.90;;;-1.31;58.04;94771.50;4975506;28;20222;-84
2021/03/23 02:34:49;;;;;;;10.63;3.97;;;-1.90;99.90;;;-1.43;58.57;94768.47;4982469;28;20191;-81
2021/03/23 02:37:18;;;;;;;8.37;3.90;;;-1.90;99.90;;;-1.50;58.28;94764.13;4952947;29;20722;-83
2021/03/23 02:39:57;;;;;;;6.00;4.00;;;-2.00;99.90;;;-1.53;58.42;94788.66;4977501;28;20269;-82
2021/03/23 02:42:31;;;;;;;9.97;4.17;;;-2.10;99.90;;;-1.51;58.44;94775.50;5044333;28;20187;-83
2021/03/23 02:45:01;;;;;;;10.43;4.33;;;-2.10;99.90;;;-1.54;58.22;94766.25;5042321;28;20207;-84
2021/03/23 02:47:40;;;;;;;9.70;4.50;;;-2.10;99.90;;;-1.50;58.69;94785.72;5025102;28;20258;-83
2021/03/23 02:50:18;;;;;;;8.00;4.40;;;-2.10;99.90;;;-1.60;58.22;94778.13;5025051;28;20200;-83
2021/03/23 02:53:13;;;;;;;9.13;4.67;;;-2.20;99.90;;;-1.56;58.50;94781.19;5055683;28;20558;-82
2021/03/23 02:55:48;;;;;;;9.60;4.10;;;-2.20;99.90;;;-1.59;58.94;94789.34;5001324;28;20191;-84
2021/03/23 02:58:24;;;;;;;9.30;4.30;;;-2.30;99.90;;;-1.73;58.33;94774.44;4964307;28;20287;-83
2021/03/23 03:01:02;;;;;;;9.20;4.57;;;-2.30;99.90;;;-1.75;58.57;94773.81;4964079;28;20241;-83
2021/03/23 03:03:38;;;;;;;11.47;4.50;;;-2.40;99.90;;;-1.84;58.53;94772.19;4996076;28;20214;-82
2021/03/23 03:06:06;;;;;;;10.40;4.37;;;-2.40;99.90;;;-1.78;58.56;94784.53;5023647;28;20592;-81
2021/03/23 03:08:46;;;;;;;11.80;4.67;;;-2.40;99.90;;;-1.75;58.71;94776.41;5022168;28;20642;-81
2021/03/23 03:11:29;;;;;;;8.93;4.50;;;-2.20;99.90;;;-1.77;58.68;94783.53;5018439;28;20185;-81
2021/03/23 03:14:05;;;;;;;13.00;4.83;;;-2.40;99.90;;;-1.78;58.87;94784.53;5018795;28;20197;-81
2021/03/23 03:16:48;;;;;;;10.80;4.73;;;-2.30;99.90;;;-1.83;59.13;94797.22;5018834;28;20259;-83
2021/03/23 03:19:16;;;;;;;9.67;4.63;;;-2.40;99.90;;;-1.78;58.61;94784.53;5018211;28;20236;-83
2021/03/23 03:21:56;;;;;;;11.63;4.30;;;-2.30;99.90;;;-1.74;58.66;94788.41;5025353;28;20179;-81
2021/03/23 03:24:24;;;;;;;12.27;4.80;;;-2.40;99.90;;;-1.83;58.80;94786.81;5038686;28;20722;-83
2021/03/23 03:27:09;;;;;;;11.10;4.50;;;-2.40;99.90;;;-1.83;58.80;94795.41;5015004;28;20322;-83
2021/03/23 03:29:55;;;;;;;9.90;4.37;;;-2.30;99.90;;;-1.88;58.69;94796.91;5004542;28;20204;-83
2021/03/23 03:32:22;;;;;;;11.77;4.57;;;-2.50;99.90;;;-1.94;58.93;94784.56;5027317;28;20229;-81
2021/03/23 03:35:10;;;;;;;7.53;4.43;;;-2.50;99.90;;;-1.94;58.96;94784.56;5068482;28;20217;-83
2021/03/23 03:37:55;;;;;;;11.40;4.47;;;-2.60;99.90;;;-2.08;58.90;94793.84;5046074;28;20184;-83
2021/03/23 03:40:59;;;;;;;9.63;4.27;;;-2.60;99.90;;;-2.16;58.82;94799.88;5058849;28;20227;-83
2021/03/23 03:43:31;;;;;;;10.17;4.30;;;-2.70;99.90;;;-2.24;58.89;94789.50;4997075;28;20618;-84
2021/03/23 03:45:57;;;;;;;11.77;4.10;;;-2.80;99.90;;;-2.25;58.82;94797.47;5013110;28;20673;-83
2021/03/23 03:48:23;;;;;;;8.47;4.30;;;-2.80;99.90;;;-2.26;59.20;94786.28;4981522;28;20247;-83
2021/03/23 03:51:00;;;;;;;10.80;4.80;;;-2.80;99.90;;;-2.16;59.28;94786.09;4999379;28;20788;-83
2021/03/23 03:53:41;;;;;;;10.03;4.73;;;-2.80;99.90;;;-2.22;59.02;94786.75;5014526;28;20215;-83
2021/03/23 03:56:08;;;;;;;10.80;4.87;;;-2.80;99.90;;;-2.21;58.98;94789.16;4997196;28;20672;-83
2021/03/23 03:58:56;;;;;;;12.73;5.23;;;-2.80;99.90;;;-2.23;59.50;94798.91;5013686;28;20245;-83
2021/03/23 04:01:42;;;;;;;10.97;4.97;;;-2.80;99.90;;;-2.28;58.97;94792.59;4997476;28;20642;-84
2021/03/23 04:04:08;;;;;;;11.80;4.80;;;-2.90;99.90;;;-2.30;59.67;94791.94;4999333;28;20227;-83
2021/03/23 04:06:35;;;;;;;9.27;4.60;;;-2.90;99.90;;;-2.30;59.70;94800.53;4990305;28;20726;-83
2021/03/23 04:09:04;;;;;;;15.90;5.53;;;-2.90;99.90;;;-2.28;59.51;94797.78;4984414;28;20176;-83
2021/03/23 04:12:07;;;;;;;9.70;5.27;;;-2.90;99.90;;;-2.44;59.45;94790.00;4995767;28;20677;-83
2021/03/23 04:14:35;;;;;;;8.97;4.40;;;-2.90;99.90;;;-2.41;59.42;94787.91;4955479;29;20660;-81
2021/03/23 04:17:11;;;;;;;6.73;4.37;;;-2.90;99.90;;;-2.29;59.40;94806.56;4947836;28;20627;-81
2021/03/23 04:19:40;;;;;;;12.83;4.80;;;-2.90;99.90;;;-2.33;59.23;94802.66;4999508;28;20201;-81
2021/03/23 04:22:09;;;;;;;11.63;5.37;;;-2.90;99.90;;;-2.50;59.87;94777.69;4996154;28;20217;-84
2021/03/23 04:24:34;;;;;;;12.53;4.90;;;-2.90;99.90;;;-2.35;59.59;94802.03;4977463;28;20212;-84
2021/03/23 04:27:00;;;;;;;9.53;5.03;;;-2.90;99.90;;;-2.35;60.09;94797.63;4961928;28;20689;-83
2021/03/23 04:29:35;;;;;;;10.17;5.43;;;-2.80;99.90;;;-2.24;59.42;94799.06;4961512;28;20206;-84
2021/03/23 04:32:03;;;;;;;11.13;5.43;;;-2.90;99.90;;;-2.21;59.65;94793.53;4951809;28;20185;-81
2021/03/23 04:35:00;;;;;;;13.77;5.53;;;-2.90;99.90;;;-2.16;59.58;94804.25;4977902;28;20222;-81
2021/03/23 04:37:30;;;;;;;10.07;5.00;;;-2.70;99.90;;;-2.13;59.87;94786.56;4867517;29;20221;-81
2021/03/23 04:39:55;;;;;;;12.13;5.60;;;-2.80;99.90;;;-2.10;59.72;94788.84;4883527;29;20789;-81
2021/03/23 04:42:40;;;;;;;12.13;5.03;;;-2.80;99.90;;;-2.09;59.75;94806.03;4867027;29;20201;-81
2021/03/23 04:45:36;;;;;;;11.97;5.13;;;-2.80;99.90;;;-2.09;60.07;94813.84;4866540;29;20227;-82
2021/03/23 04:48:33;;;;;;;12.97;5.30;;;-2.80;99.90;;;-2.16;60.07;94810.28;4812231;29;20325;-82
2021/03/23 04:51:14;;;;;;;15.03;5.73;;;-2.80;99.90;;;-2.15;60.40;94809.28;4844161;29;20245;-82
2021/03/23 04:54:10;;;;;;;11.67;5.53;;;-2.80;99.90;;;-2.16;60.29;94799.88;4830956;29;20223;-82
2021/03/23 04:57:08;;;;;;;9.53;5.17;;;-2.80;99.90;;;-2.17;59.90;94808.63;4843939;29;20208;-82
2021/03/23 04:59:49;;;;;;;13.77;6.30;;;-2.80;99.90;;;-2.17;60.10;94808.63;4812735;29;20208;-82
2021/03/23 05:02:18;;;;;;;11.37;5.37;;;-2.80;99.90;;;-2.07;59.96;94803.25;4828015;29;20576;-82
2021/03/23 05:05:15;;;;;;;12.77;5.07;;;-2.80;99.90;;;-2.09;60.40;94813.84;4824929;29;20228;-82
2021/03/23 05:07:51;;;;;;;11.63;5.60;;;-2.70;99.90;;;-2.08;60.01;94809.41;4791051;30;20224;-82
2021/03/23 05:10:27;;;;;;;12.03;5.93;;;-2.80;99.90;;;-2.04;60.06;94817.69;4776691;30;20207;-82
2021/03/23 05:12:53;;;;;;;12.17;5.10;;;-2.70;99.90;;;-2.00;59.89;94819.81;4781851;29;20221;-82
2021/03/23 05:15:29;;;;;;;11.83;4.87;;;-2.70;99.90;;;-1.99;59.96;94810.22;4832012;29;20624;-82
2021/03/23 05:18:06;;;;;;;10.50;5.43;;;-2.80;99.90;;;-1.97;60.70;94826.44;4849906;29;20220;-82
2021/03/23 05:20:32;;;;;;;11.80;4.90;;;-2.70;99.90;;;-1.99;60.32;94826.63;4849907;29;20298;-82
2021/03/23 05:23:01;;;;;;;11.70;5.13;;;-2.70;99.90;;;-2.03;60.45;94827.94;4831042;29;20246;-82
2021/03/23 05:25:30;;;;;;;10.93;4.87;;;-2.70;99.90;;;-2.09;60.14;94831.19;4868263;29;20717;-82
2021/03/23 05:27:55;;;;;;;11.43;4.90;;;-2.70;99.90;;;-2.13;60.64;94824.69;4860750;29;20211;-82
2021/03/23 05:30:30;;;;;;;9.67;4.80;;;-2.60;99.90;;;-2.05;60.59;94842.06;4877524;29;20694;-82
2021/03/23 05:33:10;;;;;;;10.90;4.90;;;-2.70;99.90;;;-1.92;60.27;94844.97;4870541;29;20217;-83
2021/03/23 05:35:50;;;;;;;11.77;4.80;;;-2.60;99.90;;;-1.88;60.19;94841.06;4898322;29;20389;-83
2021/03/23 05:38:49;;;;;;;13.27;4.90;;;-2.50;99.90;;;-1.84;60.60;94850.13;4947598;29;20737;-83
2021/03/23 05:41:45;;;;;;;9.77;4.57;;;-2.50;99.90;;;-1.78;60.90;94852.06;4946564;29;20188;-83
2021/03/23 05:44:48;;;;;;;11.20;4.83;;;-2.50;99.90;;;-1.68;60.40;94847.50;5014230;28;20195;-85
2021/03/23 05:47:42;;;;;;;8.57;4.30;;;-2.40;99.90;;;-1.59;60.42;94843.91;5054211;28;20241;-83
2021/03/23 05:50:35;;;;;;;9.17;4.70;;;-2.30;99.90;;;-1.48;60.92;94846.16;5048042;28;20273;-83
2021/03/23 05:53:40;;;;;;;11.60;4.37;;;-2.20;99.90;;;-1.40;60.85;94850.47;5060719;28;20199;-82
2021/03/23 05:56:48;;;;;;;6.70;4.40;;;-2.20;99.90;;;-1.44;60.76;94844.81;5000892;28;20185;-83
2021/03/23 05:59:51;;;;;;;9.80;4.60;;;-2.10;99.90;;;-1.38;60.90;94849.34;4945489;29;20536;-83
2021/03/23 06:02:58;;;;;;;10.50;4.73;;;-2.10;99.90;;;-1.34;61.00;94849.84;4870247;29;20219;-84
2021/03/23 06:05:47;;;;;;;11.17;4.47;;;-2.00;99.90;;;-1.21;60.95;94848.28;4885503;29;20190;-83
2021/03/23 06:08:37;;;;;;;11.50;4.10;;;-1.90;99.90;;;-1.19;60.98;94833.34;4882274;29;20174;-83
2021/03/23 06:11:38;;;;;;;11.20;4.70;;;-1.80;99.90;;;-1.02;61.10;94852.28;4872316;29;20288;-86
2021/03/23 06:14:35;;;;;;;8.33;4.17;;;-1.70;99.90;;;-0.92;60.99;94849.47;4880590;29;20231;-84
2021/03/23 06:17:45;;;;;;;11.80;4.40;;;-1.60;99.90;;;-0.86;61.21;94853.97;4884730;29;20228;-83
2021/03/23 06:20:32;;;;;;;10.20;4.70;;;-1.50;99.90;;;-0.77;61.19;94860.78;4876767;29;20300;-85
2021/03/23 06:23:46;;;;;;;11.47;5.70;;;-1.50;99.90;;;-0.76;61.08;94860.59;4870258;29;20187;-85
2021/03/23 06:26:40;;;;;;;9.70;4.67;;;-1.40;99.90;;;-0.64;61.37;94855.81;4870940;29;20178;-86
2021/03/23 06:29:55;;;;;;;10.83;4.33;;;-1.30;99.90;;;-0.56;61.47;94858.34;4857196;29;20190;-84
2021/03/23 06:32:48;;;;;;;11.47;4.90;;;-1.20;99.90;;;-0.35;61.22;94865.53;4937893;29;20201;-84
2021/03/23 06:35:35;;;;;;;9.70;4.07;;;-1.10;99.90;;;-0.15;61.19;94872.69;4961248;28;20647;-85
2021/03/23 06:38:05;;;;;;;17.40;4.90;;;-0.90;99.90;;;-0.02;61.44;94848.66;4982022;28;20227;-84
2021/03/23 06:41:04;;;;;;;9.43;4.87;;;-0.70;99.90;;;0.24;61.51;94867.28;5030461;28;20243;-82
2021/03/23 06:43:31;;;;;;;10.80;5.10;;;-0.60;99.90;;;0.62;61.82;94859.41;5071498;28;20671;-82
2021/03/23 06:46:17;;;;;;;7.23;4.80;;;-0.20;99.90;;;1.32;61.23;94893.63;5041783;28;20207;-82
2021/03/23 06:49:05;;;;;;;7.30;3.97;;;0.30;99.90;;;3.70;61.69;94929.22;5025632;28;20169;-81
2021/03/23 06:51:36;;;;;;;8.73;3.87;;;2.20;99.90;;;6.47;62.56;94921.47;5041913;28;20176;-83
2021/03/23 06:54:30;;;;;;;8.77;4.10;;;5.30;99.90;;;9.21;62.70;94914.78;5048013;28;20230;-81
2021/03/23 06:57:18;;;;;;;9.73;4.17;;;8.40;99.90;;;11.63;62.92;94926.31;5042586;28;20191;-80
2021/03/23 07:00:32;;;;;;;9.50;4.80;;;11.10;99.90;;;13.14;62.40;94892.56;5047015;28;20177;-81
2021/03/23 07:03:26;;;;;;;8.47;4.07;;;12.90;95.50;;;14.43;62.20;94911.38;5032114;28;20263;-81
2021/03/23 07:05:58;;;;;;;9.17;4.27;;;14.90;85.40;;;15.36;62.26;94911.97;5018918;28;20188;-81
2021/03/23 07:08:43;;;;;;;6.73;4.20;;;16.10;79.10;;;15.90;61.82;94853.31;5019217;28;20261;-81
2021/03/23 07:11:16;;;;;;;9.30;4.37;;;16.90;71.10;;;16.40;61.76;94889.72;5054183;28;20211;-80
2021/03/23 07:13:43;;;;;;;7.83;3.83;;;17.70;68.10;;;17.50;61.76;94899.91;5026650;28;20272;-81
2021/03/23 07:17:13;;;;;;;5.50;3.57;;;18.80;64.70;;;17.35;61.20;94841.91;5055841;28;20183;-81
2021/03/23 07:19:53;;;;;;;5.55;3.88;;;18.70;60.90;;;16.48;60.74;94925.81;5048811;28;20444;-82
2021/03/23 07:22:43;;;;;;;7.73;3.93;;;19.30;59.70;;;17.97;60.37;94913.41;5041104;28;20202;-81
2021/03/23 07:25:43;;;;;;;6.47;4.00;;;20.30;58.00;;;17.98;60.53;94908.84;5028770;28;21057;-82
2021/03/23 07:28:32;;;;;;;5.23;3.23;;;21.30;56.10;;;18.28;60.14;94831.44;5056615;28;20188;-82
2021/03/23 07:31:41;;;;;;;7.33;3.90;;;21.10;55.20;;;18.64;59.54;94981.34;5035186;28;20219;-83
2021/03/23 07:34:24;;;;;;;7.88;3.70;;;20.60;54.70;;;19.53;59.32;94885.44;5037141;28;21021;-82
2021/03/23 07:37:11;;;;;;;6.10;3.60;;;22.30;53.50;;;20.29;59.17;94917.13;5067345;28;20255;-82
2021/03/23 07:40:22;;;;;;;7.33;3.70;;;22.70;52.00;;;21.37;58.47;94934.97;5055196;28;20241;-83
2021/03/23 07:43:22;;;;;;;7.17;3.63;;;23.30;51.00;;;21.04;58.47;94893.13;4995636;28;20201;-83
2021/03/23 07:46:35;;;;;;;6.10;3.87;;;23.50;50.60;;;21.92;57.81;94918.53;4988705;28;20207;-82
2021/03/23 07:49:22;;;;;;;9.33;3.70;;;23.70;50.70;;;22.45;57.36;94951.66;5014751;28;20200;-82
2021/03/23 07:52:13;;;;;;;6.13;3.30;;;24.60;49.20;;;23.64;57.33;94897.22;5001025;28;20236;-83
2021/03/23 07:54:51;;;;;;;5.17;3.53;;;26.10;47.30;;;24.02;56.95;94914.31;4995787;28;20227;-84
2021/03/23 07:58:12;;;;;;;6.27;3.80;;;26.60;46.60;;;23.26;56.63;94910.59;4978115;28;20202;-83
2021/03/23 08:01:17;;;;;;;5.37;3.73;;;26.60;45.80;;;22.75;55.94;94963.53;4985204;28;20192;-82
2021/03/23 08:04:44;;;;;;;8.77;3.83;;;25.70;47.00;;;23.06;55.75;94974.25;4974793;28;20241;-82
2021/03/23 08:07:57;;;;;;;6.03;3.70;;;26.00;46.40;;;23.20;55.09;94872.06;4975727;28;20229;-83
2021/03/23 08:11:28;;;;;;;4.90;3.70;;;26.20;45.50;;;24.17;54.91;94932.78;4918087;29;20265;-82
2021/03/23 08:14:14;;;;;;;7.00;4.00;;;26.70;45.50;;;24.56;54.47;94899.13;4913979;29;20214;-81
2021/03/23 08:17:16;;;;;;;5.57;3.37;;;27.40;44.90;;;25.44;53.75;94954.06;4919915;29;20208;-84
2021/03/23 08:20:19;;;;;;;5.10;3.80;;;28.30;44.10;;;24.41;53.23;94953.91;4966902;28;20209;-80
2021/03/23 08:23:12;;;;;;;5.43;3.77;;;27.70;43.30;;;24.37;53.08;94936.69;4971643;28;20253;-81
2021/03/23 08:26:07;;;;;;;6.47;3.87;;;27.70;42.90;;;24.98;52.65;94956.97;4958507;28;20192;-81
2021/03/23 08:29:04;;;;;;;5.53;3.70;;;28.20;42.50;;;25.24;52.42;94887.03;4958481;28;20193;-82
2021/03/23 08:32:08;;;;;;;6.57;3.57;;;28.50;41.90;;;24.88;51.77;94963.56;4971819;28;20613;-81
2021/03/23 08:35:31;;;;;;;5.97;3.47;;;28.40;41.10;;;24.67;51.65;94938.28;4946640;28;20217;-81
2021/03/23 08:38:52;;;;;;;5.90;4.00;;;28.10;41.00;;;26.20;50.99;94975.47;4939606;29;20590;-82
2021/03/23 08:42:03;;;;;;;5.00;3.63;;;29.40;40.30;;;24.56;50.66;94874.72;4944307;28;20211;-81
2021/03/23 08:44:51;;;;;;;6.80;3.93;;;28.60;40.20;;;23.39;50.09;94923.97;4938751;29;20284;-82
2021/03/23 08:47:43;;;;;;;5.07;3.70;;;27.30;41.20;;;23.58;50.21;94979.69;4976940;28;20280;-82
2021/03/23 08:50:29;;;;;;;9.40;3.90;;;26.50;42.20;;;23.81;49.42;94892.53;5037884;28;20288;-82
2021/03/23 08:53:01;;;;;;;4.47;3.67;;;26.70;41.80;;;23.80;49.03;94903.72;5009801;28;20248;-82
2021/03/23 08:55:50;;;;;;;5.60;3.60;;;26.60;42.10;;;24.34;48.88;94962.50;4992270;28;20167;-82
2021/03/23 08:58:55;;;;;;;6.37;4.10;;;27.00;42.10;;;24.91;48.72;94918.72;5024690;28;20259;-83
2021/03/23 09:01:41;;;;;;;7.53;3.77;;;27.40;41.10;;;24.92;48.52;94879.59;4968811;28;20209;-82
2021/03/23 09:04:10;;;;;;;8.33;4.33;;;28.00;40.80;;;23.55;48.10;94785.44;4977805;28;20186;-83
2021/03/23 09:07:28;;;;;;;6.63;3.90;;;26.70;41.10;;;23.21;47.90;94979.19;4987411;28;20175;-82
2021/03/23 09:09:57;;;;;;;5.27;3.40;;;25.70;42.10;;;23.65;47.61;94825.69;4936572;29;20207;-81
2021/03/23 09:12:59;;;;;;;4.47;3.33;;;26.20;42.00;;;23.68;47.37;94944.97;4903493;29;20200;-82
2021/03/23 09:15:26;;;;;;;5.10;3.50;;;25.80;42.10;;;24.11;46.81;94862.81;4907662;29;20238;-81
2021/03/23 09:18:15;;;;;;;5.37;3.73;;;26.60;42.30;;;23.19;46.71;94846.16;4922399;29;20822;-82
2021/03/23 09:20:41;;;;;;;6.07;3.80;;;26.20;42.10;;;24.14;46.60;94864.91;4901653;29;20209;-81
2021/03/23 09:23:22;;;;;;;5.33;3.80;;;26.90;41.50;;;25.38;46.41;94949.94;4903342;29;20248;-82
2021/03/23 09:26:04;;;;;;;5.73;3.97;;;28.10;40.70;;;24.27;46.33;94874.72;4925156;29;20180;-81
2021/03/23 09:28:39;;;;;;;6.27;4.23;;;27.20;40.40;;;24.66;45.71;94950.25;4917862;29;20196;-82
2021/03/23 09:31:47;;;;;;;5.50;3.80;;;27.00;41.30;;;24.48;45.31;94929.75;4937346;29;20350;-84
2021/03/23 09:35:13;;;;;;;6.57;4.10;;;27.00;41.50;;;25.38;45.42;94941.81;4912203;29;20219;-87
2021/03/23 09:38:34;;;;;;;5.70;4.03;;;27.60;40.90;;;24.54;45.10;94947.47;4946897;28;20277;-81
2021/03/23 09:41:04;;;;;;;6.57;3.80;;;27.20;41.00;;;26.63;44.72;94895.25;4935156;28;20191;-83
2021/03/23 09:43:38;;;;;;;5.67;4.37;;;29.10;39.70;;;26.12;44.37;94907.59;4953569;28;20174;-84
2021/03/23 09:46:23;;;;;;;6.15;4.50;;;29.00;39.30;;;25.33;43.98;94957.50;4983017;28;20481;-86
2021/03/23 09:49:12;;;;;;;5.23;3.90;;;29.20;39.90;;;27.20;43.75;94980.28;4970462;28;20665;-81
2021/03/23 09:52:09;;;;;;;5.73;4.07;;;30.70;39.10;;;27.12;43.49;95003.00;4958156;29;20563;-81
2021/03/23 09:54:52;;;;;;;5.93;4.13;;;30.50;39.30;;;27.81;43.43;94997.31;4973522;28;20198;-79
2021/03/23 09:57:28;;;;;;;6.43;4.53;;;30.60;38.80;;;26.42;43.15;94874.44;4971667;28;20281;-82
2021/03/23 10:00:59;;;;;;;5.13;3.93;;;29.60;38.20;;;26.88;42.56;94983.94;4978768;28;20181;-80
2021/03/23 10:03:43;;;;;;;5.83;4.37;;;29.00;40.00;;;25.22;42.21;94942.75;4928328;29;20282;-87
2021/03/23 10:06:18;;;;;;;5.57;4.07;;;27.60;41.00;;;24.67;42.05;94748.47;4922330;29;20201;-80
2021/03/23 10:09:09;;;;;;;6.87;3.97;;;27.80;40.00;;;24.41;41.90;94835.41;4900770;29;20310;-81
2021/03/23 10:11:45;;;;;;;6.37;4.57;;;27.20;41.20;;;24.33;41.55;94882.34;4971970;28;20204;-80
2021/03/23 10:14:31;;;;;;;4.70;3.87;;;26.90;41.40;;;26.33;41.68;94821.28;4949898;28;20312;-80
2021/03/23 10:17:27;;;;;;;5.20;4.30;;;28.90;40.10;;;26.59;41.46;94924.31;4975698;28;20647;-81
2021/03/23 10:20:24;;;;;;;5.83;4.00;;;29.00;40.80;;;27.08;41.12;94922.34;4949116;28;20203;-84
2021/03/23 10:22:55;;;;;;;8.57;4.20;;;29.70;39.60;;;27.68;40.94;94861.44;4942110;29;20258;-80
2021/03/23 10:25:24;;;;;;;8.40;4.43;;;30.20;39.10;;;27.30;40.57;94691.19;4946769;29;20599;-80
2021/03/23 10:28:35;;;;;;;7.50;4.50;;;31.00;38.20;;;27.62;40.49;94975.34;4924467;29;20693;-80
2021/03/23 10:31:09;;;;;;;5.37;4.00;;;30.20;38.30;;;27.61;39.87;94703.25;4937155;29;20620;-80
2021/03/23 10:33:39;;;;;;;6.13;4.40;;;31.40;37.20;;;26.16;39.76;94862.25;4935449;29;20245;-80
2021/03/23 10:36:14;;;;;;;5.20;3.77;;;29.20;38.70;;;26.86;39.96;94791.06;4938395;29;20242;-80
2021/03/23 10:38:46;;;;;;;6.70;4.20;;;29.30;38.80;;;27.21;39.62;94938.31;4935713;29;20198;-80
2021/03/23 10:41:29;;;;;;;5.20;4.13;;;29.50;39.10;;;28.57;39.26;94927.28;4958328;28;20263;-84
2021/03/23 10:44:44;;;;;;;7.53;4.90;;;31.70;37.70;;;30.73;38.94;94916.91;4975352;28;20200;-80
2021/03/23 10:47:44;;;;;;;5.73;4.03;;;33.90;37.40;;;30.37;38.67;94914.72;4917953;29;20563;-80
2021/03/23 10:50:23;;;;;;;4.23;3.80;;;34.20;36.70;;;29.45;38.43;94853.59;4913238;29;20295;-81
2021/03/23 10:53:23;;;;;;;4.90;4.20;;;33.30;36.20;;;29.20;38.00;94909.66;4915877;29;20279;-81
2021/03/23 10:55:59;;;;;;;6.67;4.30;;;33.20;36.20;;;27.99;38.12;94924.19;4942869;29;20641;-84
2021/03/23 10:58:38;;;;;;;5.23;4.13;;;31.80;36.80;;;26.76;37.96;94739.84;4946172;29;20199;-82
2021/03/23 11:01:29;;;;;;;5.80;4.20;;;30.70;37.50;;;27.90;37.45;94934.47;4940994;29;20277;-81
2021/03/23 11:04:21;;;;;;;6.67;4.70;;;31.00;37.30;;;28.27;37.03;94894.94;4927603;29;20191;-81
2021/03/23 11:07:20;;;;;;;6.77;4.20;;;31.50;36.90;;;28.53;37.12;94970.84;4941787;29;20233;-82
2021/03/23 11:10:00;;;;;;;7.33;4.10;;;31.30;38.70;;;28.13;36.59;94886.44;4957809;29;20243;-81
2021/03/23 11:12:29;;;;;;;6.13;3.90;;;31.50;37.30;;;29.71;36.33;94929.50;4950562;28;20238;-79
2021/03/23 11:14:59;;;;;;;5.27;3.90;;;32.90;37.70;;;29.71;36.93;94745.56;4953826;29;20238;-81
2021/03/23 11:17:45;;;;;;;4.10;3.70;;;33.60;35.10;;;29.59;36.59;94734.78;4942137;29;20222;-80
2021/03/23 11:20:35;;;;;;;4.80;4.23;;;33.30;35.00;;;29.42;36.30;94886.31;4940393;29;20195;-79
2021/03/23 11:23:03;;;;;;;5.07;4.03;;;32.10;37.00;;;29.32;35.58;94865.84;4960328;28;20232;-78
2021/03/23 11:25:29;;;;;;;5.87;4.33;;;31.90;35.60;;;28.80;35.35;94829.97;4977515;28;20197;-78
2021/03/23 11:28:04;;;;;;;5.73;3.93;;;31.50;36.70;;;30.88;35.25;94943.38;4946143;28;20194;-78